Nearby METAR Reports

 

KFRG - , , USA
Distance from station: SSW 12mi, 20km
Updated: 12/14/2018 9:37pm
Light rain, Overcast
Light rain, Overcast
 Wind from S
Wind: S 6 mph , 9 km/h
Temperature: 48°F , 9°C
Wind Chill: 45°F , 7°C
Dew Point: 46°F , 8°C
Humidity: 94%
Barometer: 30.30 inHg , 1026.1 hPa
Summary: Light rain
Clouds: Overcast
Visibility: 8 miles , 13 km
Cloud details: Few Clouds 500 ft
Few Clouds 2700 ft
Overcast 8000 ft
2018/12/15 02:37 KFRG 150237Z 17005KT 8SM -RA FEW005 FEW027 OVC080 09/08 A3030 RMK AO2 RAB16 P0001 T00890083
KISP - , , USA
Distance from station: ESE 14mi, 23km
Updated: 12/14/2018 8:56pm
Light rain, Overcast
Light rain, Overcast
 Wind from SSE
Wind: SSE 6 mph , 9 km/h
Temperature: 48°F , 9°C
Wind Chill: 45°F , 7°C
Dew Point: 48°F , 9°C
Humidity: 100%
Barometer: 30.30 inHg , 1026.1 hPa
Summary: Light rain
Clouds: Overcast
Visibility: 10 miles , 16 km
Cloud details: Partly cloudy 2800 ft
Mostly cloudy 6000 ft
Overcast 9000 ft
2018/12/15 01:56 KISP 150156Z 15005KT 10SM -RA SCT028 BKN060 OVC090 09/09 A3030 RMK AO2 SLP261 P0002 T00890089
 
KBDR - , , USA
Distance from station: NNE 21mi, 34km
Updated: 12/14/2018 9:48pm
Overcast
Overcast
 Wind from calm
Wind: Calm
Temperature: 46°F , 8°C
Dew Point: 45°F , 7°C
Humidity: 93%
Barometer: 30.30 inHg , 1026.1 hPa
Clouds: Overcast
Visibility: 9 miles , 14 km
Cloud details: Overcast 800 ft
2018/12/15 02:48 KBDR 150248Z 00000KT 9SM OVC008 08/07 A3030 RMK AO2
KHPN - , , USA
Distance from station: WNW 22mi, 35km
Updated: 12/14/2018 9:31pm
Mist, Overcast
Mist, Overcast
 Wind from calm
Wind: Calm
Temperature: 45°F , 7°C
Dew Point: 43°F , 6°C
Humidity: 93%
Barometer: 30.28 inHg , 1025.4 hPa
Summary: Mist
Clouds: Overcast
Visibility: 1 mile , 2 km
Cloud details: Overcast 300 ft
2018/12/15 02:31 KHPN 150231Z 00000KT 1SM R16/P6000FT BR VV003 07/06 A3028 RMK AO2 T00670056
 
KHWV - , , USA
Distance from station: ESE 26mi, 41km
Updated: 12/14/2018 8:56pm
Light rain, Overcast
Light rain, Overcast
 Wind from SSE
Wind: SSE 6 mph , 9 km/h
Temperature: 46°F , 8°C
Wind Chill: 43°F , 6°C
Dew Point: 45°F , 7°C
Humidity: 93%
Barometer: 30.31 inHg , 1026.4 hPa
Summary: Light rain
Clouds: Overcast
Visibility: 7 miles , 11 km
Cloud details: Overcast 8500 ft
2018/12/15 01:56 KHWV 150156Z AUTO 16005KT 7SM -RA OVC085 08/07 A3031 RMK AO2 SLP264 P0002 T00780072
KJFK - , , USA
Distance from station: SW 29mi, 46km
Updated: 12/14/2018 8:51pm
Light rain, Overcast
Light rain, Overcast
 Wind from SSE
Wind: SSE 6 mph , 9 km/h
Temperature: 46°F , 8°C
Wind Chill: 43°F , 6°C
Dew Point: 46°F , 8°C
Humidity: 100%
Barometer: 30.31 inHg , 1026.4 hPa
Summary: Light rain
Clouds: Overcast
Visibility: 9 miles , 14 km
Cloud details: Few Clouds 1100 ft
Partly cloudy 4900 ft
Overcast 9000 ft
2018/12/15 01:51 KJFK 150151Z 15005KT 9SM -RA FEW011 SCT049 OVC090 08/08 A3031 RMK AO2 RAE03B30 SLP264 P0001 T00830083
 
KLGA - , , USA
Distance from station: WSW 29mi, 47km
Updated: 12/14/2018 9:16pm
Light rain, Overcast
Light rain, Overcast
 Wind from SSW
Wind: SSW 5 mph , 7 km/h
Temperature: 50°F , 10°C
Wind Chill: 48°F , 9°C
Dew Point: 46°F , 8°C
Humidity: 88%
Barometer: 30.30 inHg , 1026.1 hPa
Summary: Light rain
Clouds: Overcast
Visibility: 7 miles , 11 km
Cloud details: Mostly cloudy 700 ft
Mostly cloudy 5000 ft
Overcast 8000 ft
2018/12/15 02:16 KLGA 150216Z 21004KT 7SM -RA BKN007 BKN050 OVC080 10/08 A3030 RMK AO2 P0001 T01000083